createdAt,value
2018-06-17T00:00:53.895Z,5.70
2018-06-17T00:03:23.574Z,5.50
2018-06-17T00:05:53.631Z,5.47
2018-06-17T00:08:23.304Z,5.10
2018-06-17T00:10:52.920Z,5.97
2018-06-17T00:13:22.613Z,5.23
2018-06-17T00:15:52.286Z,5.50
2018-06-17T00:18:21.873Z,6.63
2018-06-17T00:20:51.631Z,6.03
2018-06-17T00:23:21.328Z,6.80
2018-06-17T00:25:51.055Z,6.40
2018-06-17T00:28:20.773Z,8.43
2018-06-17T00:30:50.350Z,6.57
2018-06-17T00:33:20.091Z,7.20
2018-06-17T00:35:49.675Z,6.07
2018-06-17T00:38:19.363Z,5.73
2018-06-17T00:40:49.090Z,6.50
2018-06-17T00:43:18.858Z,5.80
2018-06-17T00:45:48.466Z,5.87
2018-06-17T00:48:18.088Z,7.20
2018-06-17T00:50:47.868Z,7.10
2018-06-17T00:53:17.548Z,6.20
2018-06-17T00:55:47.212Z,6.13
2018-06-17T00:58:16.921Z,6.90
2018-06-17T01:00:46.632Z,6.23
2018-06-17T01:03:16.216Z,6.10
2018-06-17T01:05:45.952Z,6.40
2018-06-17T01:08:15.820Z,6.60
2018-06-17T01:10:45.388Z,6.83
2018-06-17T01:13:15.175Z,6.80
2018-06-17T01:15:44.844Z,6.27
2018-06-17T01:18:14.582Z,6.83
2018-06-17T01:20:44.248Z,6.27
2018-06-17T01:23:13.843Z,7.03
2018-06-17T01:25:43.365Z,7.83
2018-06-17T01:28:12.998Z,7.37
2018-06-17T01:30:42.674Z,7.10
2018-06-17T01:33:12.271Z,6.53
2018-06-17T01:35:42.001Z,6.17
2018-06-17T01:38:11.739Z,7.27
2018-06-17T01:40:41.459Z,7.20
2018-06-17T01:43:11.242Z,8.03
2018-06-17T01:45:41.017Z,7.43
2018-06-17T01:48:10.767Z,6.50
2018-06-17T01:50:40.451Z,6.83
2018-06-17T01:53:10.128Z,6.73
2018-06-17T01:55:39.800Z,6.60
2018-06-17T01:58:09.460Z,6.43
2018-06-17T02:00:40.213Z,7.03
2018-06-17T02:03:15.029Z,5.80
2018-06-17T02:05:50.822Z,7.53
2018-06-17T02:08:26.433Z,7.63
2018-06-17T02:11:01.488Z,6.33
2018-06-17T02:13:31.303Z,6.37
2018-06-17T02:16:01.057Z,6.03
2018-06-17T02:18:31.339Z,6.20
2018-06-17T02:21:01.166Z,7.60
2018-06-17T02:23:31.049Z,6.70
2018-06-17T02:26:00.614Z,5.50
2018-06-17T02:28:30.276Z,7.27
2018-06-17T02:31:00.094Z,7.20
2018-06-17T02:33:30.139Z,7.23
2018-06-17T02:36:00.378Z,7.83
2018-06-17T02:38:30.156Z,7.43
2018-06-17T02:40:59.853Z,6.23
2018-06-17T02:43:29.943Z,6.60
2018-06-17T02:46:05.320Z,6.77
2018-06-17T02:48:41.873Z,6.23
2018-06-17T02:51:17.105Z,6.50
2018-06-17T02:53:52.664Z,5.97
2018-06-17T02:56:23.080Z,7.70
2018-06-17T02:58:54.563Z,6.13
2018-06-17T03:01:24.307Z,7.13
2018-06-17T03:03:54.009Z,8.93
2018-06-17T03:06:23.759Z,8.37
2018-06-17T03:08:53.504Z,8.17
2018-06-17T03:11:23.240Z,7.93
2018-06-17T03:13:52.843Z,8.60
2018-06-17T03:16:22.604Z,8.20
2018-06-17T03:18:52.288Z,7.53
2018-06-17T03:21:21.979Z,6.17
2018-06-17T03:23:51.597Z,6.60
2018-06-17T03:26:26.263Z,5.80
2018-06-17T03:29:01.989Z,5.67
2018-06-17T03:33:41.992Z,5.70
2018-06-17T03:36:12.617Z,7.10
2018-06-17T03:38:43.026Z,5.30
2018-06-17T03:41:13.439Z,5.63
2018-06-17T03:43:43.027Z,6.50
2018-06-17T03:46:12.692Z,6.73
2018-06-17T03:48:43.216Z,7.00
2018-06-17T03:51:13.029Z,7.90
2018-06-17T03:53:42.595Z,7.43
2018-06-17T03:56:12.369Z,7.70
2018-06-17T03:58:42.021Z,6.80
2018-06-17T04:01:11.681Z,6.17
2018-06-17T04:03:41.729Z,6.57
2018-06-17T04:06:11.349Z,7.83
2018-06-17T04:08:40.960Z,5.40
2018-06-17T04:11:11.109Z,7.13
2018-06-17T04:13:40.756Z,7.33
2018-06-17T04:16:10.386Z,7.23
2018-06-17T04:18:39.924Z,7.10
2018-06-17T04:21:09.551Z,6.40
2018-06-17T04:23:39.176Z,5.10
2018-06-17T04:26:08.720Z,6.70
2018-06-17T04:28:38.341Z,6.50
2018-06-17T04:31:08.024Z,7.90
2018-06-17T04:33:37.755Z,8.07
2018-06-17T04:36:08.084Z,9.27
2018-06-17T04:38:37.804Z,8.60
2018-06-17T04:41:07.610Z,6.93
2018-06-17T04:43:37.961Z,5.63
2018-06-17T04:46:08.104Z,6.60
2018-06-17T04:48:37.927Z,7.30
2018-06-17T04:51:07.996Z,5.80
2018-06-17T04:53:37.757Z,5.50
2018-06-17T04:56:07.601Z,6.30
2018-06-17T04:58:37.353Z,6.47
2018-06-17T05:01:07.160Z,5.60
2018-06-17T05:03:36.910Z,6.20
2018-06-17T05:06:06.985Z,5.23
2018-06-17T05:08:36.627Z,5.10
2018-06-17T05:11:06.431Z,4.67
2018-06-17T05:13:36.603Z,6.03
2018-06-17T05:16:06.363Z,5.23
2018-06-17T05:18:36.259Z,4.33
2018-06-17T05:21:05.982Z,4.70
2018-06-17T05:23:35.672Z,6.00
2018-06-17T05:26:05.489Z,5.70
2018-06-17T05:28:35.221Z,5.47
2018-06-17T05:31:04.917Z,5.20
2018-06-17T05:33:34.743Z,4.60
2018-06-17T05:36:04.552Z,5.23
2018-06-17T05:38:34.203Z,5.30
2018-06-17T05:41:03.822Z,4.70
2018-06-17T05:43:33.513Z,6.20
2018-06-17T05:46:03.272Z,5.53
2018-06-17T05:48:33.238Z,5.93
2018-06-17T05:51:02.843Z,6.10
2018-06-17T05:53:35.207Z,6.20
2018-06-17T05:56:04.859Z,4.87
2018-06-17T05:58:34.524Z,4.70
2018-06-17T06:01:04.244Z,5.23
2018-06-17T06:03:34.057Z,5.63
2018-06-17T06:06:03.753Z,5.30
2018-06-17T06:08:33.529Z,7.13
2018-06-17T06:11:03.208Z,6.53
2018-06-17T06:13:38.443Z,9.00
2018-06-17T06:16:08.092Z,8.10
2018-06-17T06:18:38.285Z,9.50
2018-06-17T06:21:07.946Z,8.10
2018-06-17T06:23:37.742Z,9.40
2018-06-17T06:26:07.336Z,7.30
2018-06-17T06:28:37.081Z,6.97
2018-06-17T06:31:06.840Z,6.33
2018-06-17T06:33:36.567Z,5.30
2018-06-17T06:36:06.389Z,5.30
2018-06-17T06:38:36.024Z,6.73
2018-06-17T06:41:05.632Z,12.07
2018-06-17T06:43:35.247Z,8.47
2018-06-17T06:46:04.905Z,8.10
2018-06-17T06:48:34.750Z,6.03
2018-06-17T06:51:05.136Z,6.23
2018-06-17T06:53:34.904Z,5.40
2018-06-17T06:56:04.667Z,4.50
2018-06-17T06:58:34.418Z,5.70
2018-06-17T07:01:04.165Z,5.47
2018-06-17T07:03:44.479Z,4.77
2018-06-17T07:06:25.727Z,4.83
2018-06-17T07:09:06.978Z,4.87
2018-06-17T07:11:36.686Z,4.83
2018-06-17T07:14:06.691Z,4.40
2018-06-17T07:16:47.031Z,4.67
2018-06-17T07:19:17.624Z,4.70
2018-06-17T07:21:47.447Z,5.30
2018-06-17T07:24:17.105Z,5.20
2018-06-17T07:26:58.580Z,5.00
2018-06-17T07:29:40.830Z,5.20
2018-06-17T07:32:10.580Z,4.67
2018-06-17T07:34:40.198Z,5.17
2018-06-17T07:37:09.915Z,4.93
2018-06-17T07:41:47.736Z,3.90
2018-06-17T07:44:17.670Z,4.10
2018-06-17T07:46:47.413Z,3.43
2018-06-17T07:49:30.812Z,5.23
2018-06-17T07:52:12.576Z,5.90
2018-06-17T07:54:43.402Z,5.77
2018-06-17T07:57:14.635Z,4.53
2018-06-17T07:59:44.255Z,7.47
2018-06-17T08:02:14.589Z,4.67
2018-06-17T08:04:44.418Z,4.57
2018-06-17T08:07:14.005Z,4.43
2018-06-17T08:09:43.844Z,6.40
2018-06-17T08:12:13.864Z,3.90
2018-06-17T08:14:44.194Z,3.63
2018-06-17T08:17:14.065Z,4.30
2018-06-17T08:19:43.822Z,3.90
2018-06-17T08:22:13.621Z,3.93
2018-06-17T08:24:43.256Z,3.73
2018-06-17T08:27:12.909Z,3.80
2018-06-17T08:29:42.644Z,3.43
2018-06-17T08:32:12.326Z,3.70
2018-06-17T08:34:42.110Z,3.23
2018-06-17T08:37:11.943Z,3.27
2018-06-17T08:39:41.683Z,2.90
2018-06-17T08:42:11.430Z,2.70
2018-06-17T08:44:41.161Z,3.93
2018-06-17T08:47:10.902Z,4.90
2018-06-17T08:49:40.581Z,4.47
2018-06-17T08:52:10.323Z,3.40
2018-06-17T08:54:39.943Z,4.77
2018-06-17T08:57:09.537Z,2.90
2018-06-17T08:59:39.164Z,3.90
2018-06-17T09:02:08.927Z,3.53
2018-06-17T09:04:38.562Z,2.90
2018-06-17T09:07:08.150Z,2.90
2018-06-17T09:09:37.733Z,3.20
2018-06-17T09:12:07.426Z,2.80
2018-06-17T09:14:37.052Z,3.10
2018-06-17T09:17:06.707Z,2.40
2018-06-17T09:19:36.337Z,3.97
2018-06-17T09:22:05.960Z,3.10
2018-06-17T09:24:35.573Z,2.37
2018-06-17T09:27:05.350Z,2.50
2018-06-17T09:29:35.017Z,2.57
2018-06-17T09:32:04.904Z,2.17
2018-06-17T09:34:34.611Z,3.20
2018-06-17T09:37:04.269Z,2.40
2018-06-17T09:39:33.864Z,2.63
2018-06-17T09:42:03.488Z,1.70
2018-06-17T09:44:33.164Z,2.10
2018-06-17T09:47:02.796Z,2.50
2018-06-17T09:49:32.468Z,1.97
2018-06-17T09:52:02.253Z,2.37
2018-06-17T09:54:31.956Z,1.50
2018-06-17T09:57:01.748Z,1.50
2018-06-17T09:59:31.594Z,1.50
2018-06-17T10:02:01.278Z,2.07
2018-06-17T10:04:30.947Z,1.70
2018-06-17T10:07:00.679Z,2.17
2018-06-17T10:09:30.373Z,1.80
2018-06-17T10:12:00.028Z,1.60
2018-06-17T10:14:30.089Z,2.93
2018-06-17T10:16:59.846Z,2.40
2018-06-17T10:19:29.669Z,2.20
2018-06-17T10:21:59.429Z,2.00
2018-06-17T10:24:29.085Z,2.90
2018-06-17T10:26:58.852Z,2.50
2018-06-17T10:29:28.589Z,3.90
2018-06-17T10:31:58.258Z,2.60
2018-06-17T10:34:27.933Z,2.30
2018-06-17T10:36:57.656Z,2.53
2018-06-17T10:39:27.285Z,3.60
2018-06-17T10:41:56.988Z,2.97
2018-06-17T10:44:26.691Z,2.53
2018-06-17T10:46:56.441Z,3.60
2018-06-17T10:49:26.159Z,2.80
2018-06-17T10:51:55.939Z,3.30
2018-06-17T10:54:25.652Z,3.20
2018-06-17T10:56:55.399Z,3.73
2018-06-17T10:59:25.104Z,4.77
2018-06-17T11:01:54.780Z,3.97
2018-06-17T11:04:24.528Z,3.90
2018-06-17T11:06:54.285Z,3.93
2018-06-17T11:09:24.076Z,3.23
2018-06-17T11:11:53.714Z,3.40
2018-06-17T11:14:23.346Z,2.00
2018-06-17T11:16:53.043Z,3.33
2018-06-17T11:19:22.736Z,3.93
2018-06-17T11:21:53.215Z,4.47
2018-06-17T11:24:22.844Z,2.70
2018-06-17T11:26:52.596Z,4.30
2018-06-17T11:29:22.305Z,3.13
2018-06-17T11:31:51.949Z,4.90
2018-06-17T11:34:21.630Z,4.43
2018-06-17T11:36:51.295Z,3.03
2018-06-17T11:39:21.015Z,3.30
2018-06-17T11:41:50.765Z,4.13
2018-06-17T11:44:20.344Z,4.67
2018-06-17T11:46:50.141Z,4.37
2018-06-17T11:49:19.753Z,4.67
2018-06-17T11:51:49.818Z,4.50
2018-06-17T11:54:19.570Z,3.97
2018-06-17T11:56:49.315Z,2.77
2018-06-17T11:59:19.137Z,4.20
2018-06-17T12:01:48.957Z,4.13
2018-06-17T12:04:19.263Z,2.70
2018-06-17T12:06:49.121Z,3.50
2018-06-17T12:09:18.971Z,2.90
2018-06-17T12:11:48.817Z,4.50
2018-06-17T12:14:18.534Z,3.47
2018-06-17T12:16:48.385Z,2.30
2018-06-17T12:19:18.036Z,2.80
2018-06-17T12:21:47.877Z,3.17
2018-06-17T12:24:17.992Z,3.27
2018-06-17T12:26:47.644Z,2.90
2018-06-17T12:29:17.306Z,2.33
2018-06-17T12:31:46.955Z,2.53
2018-06-17T12:34:16.663Z,3.67
2018-06-17T12:36:46.491Z,3.13
2018-06-17T12:39:16.181Z,3.53
2018-06-17T12:41:45.868Z,3.60
2018-06-17T12:44:15.651Z,4.20
2018-06-17T12:46:45.333Z,1.57
2018-06-17T12:49:15.056Z,1.83
2018-06-17T12:51:44.665Z,1.40
2018-06-17T12:54:14.309Z,2.17
2018-06-17T12:56:44.133Z,2.10
2018-06-17T12:59:13.775Z,2.43
2018-06-17T13:01:43.521Z,2.80
2018-06-17T13:04:13.147Z,3.20
2018-06-17T13:06:43.004Z,2.70
2018-06-17T13:09:13.146Z,1.80
2018-06-17T13:11:43.252Z,3.10
2018-06-17T13:14:12.994Z,2.83
2018-06-17T13:16:42.701Z,2.43
2018-06-17T13:19:12.382Z,1.80
2018-06-17T13:21:42.084Z,1.90
2018-06-17T13:24:11.892Z,1.80
2018-06-17T13:26:41.957Z,2.17
2018-06-17T13:29:11.699Z,2.13
2018-06-17T13:31:41.372Z,1.40
2018-06-17T13:34:10.926Z,2.23
2018-06-17T13:36:40.664Z,2.33
2018-06-17T13:39:10.951Z,2.20
2018-06-17T13:41:40.645Z,2.13
2018-06-17T13:44:10.368Z,2.00
2018-06-17T13:46:40.115Z,1.60
2018-06-17T13:49:09.958Z,3.23
2018-06-17T13:51:39.694Z,2.13
2018-06-17T13:54:09.456Z,1.70
2018-06-17T13:56:39.050Z,2.00
2018-06-17T13:59:08.835Z,2.07
2018-06-17T14:01:38.610Z,2.13
2018-06-17T14:04:08.536Z,1.57
2018-06-17T14:06:38.209Z,2.97
2018-06-17T14:09:10.382Z,2.00
2018-06-17T14:11:40.186Z,2.77
2018-06-17T14:14:09.867Z,2.67
2018-06-17T14:16:39.915Z,2.40
2018-06-17T14:19:09.628Z,1.63
2018-06-17T14:21:39.328Z,1.30
2018-06-17T14:24:09.068Z,1.90
2018-06-17T14:26:38.844Z,2.10
2018-06-17T14:29:08.960Z,2.43
2018-06-17T14:31:38.678Z,1.87
2018-06-17T14:34:08.485Z,2.40
2018-06-17T14:36:38.189Z,2.57
2018-06-17T14:39:11.260Z,2.47
2018-06-17T14:41:41.149Z,2.17
2018-06-17T14:44:15.859Z,2.40
2018-06-17T14:46:50.826Z,2.30
2018-06-17T15:36:12.159Z,2.03
2018-06-17T15:38:46.933Z,2.30
2018-06-17T15:41:21.652Z,2.10
2018-06-17T15:43:51.977Z,1.57
2018-06-17T15:46:21.654Z,1.90
2018-06-17T15:48:51.356Z,1.47
2018-06-17T15:51:21.208Z,2.13
2018-06-17T15:53:51.051Z,2.00
2018-06-17T15:56:20.729Z,2.00
2018-06-17T15:58:50.530Z,1.83
2018-06-17T16:01:20.268Z,2.20
2018-06-17T16:03:50.094Z,2.60
2018-06-17T16:06:19.896Z,1.70
2018-06-17T16:08:49.520Z,1.60
2018-06-17T16:11:19.151Z,2.60
2018-06-17T16:13:53.993Z,2.07
2018-06-17T16:16:28.599Z,2.00
2018-06-17T16:19:03.065Z,2.50
2018-06-17T16:21:32.881Z,2.73
2018-06-17T16:24:03.172Z,1.83
2018-06-17T16:26:32.814Z,2.67
2018-06-17T16:29:02.676Z,1.83
2018-06-17T16:31:32.393Z,2.50
2018-06-17T16:34:02.113Z,2.03
2018-06-17T16:36:32.180Z,2.47
2018-06-17T16:39:01.980Z,1.83
2018-06-17T16:41:31.697Z,2.00
2018-06-17T16:44:01.821Z,2.87
2018-06-17T16:46:32.573Z,2.23
2018-06-17T16:49:03.128Z,3.20
2018-06-17T16:51:38.549Z,2.87
2018-06-17T16:54:14.583Z,2.70
2018-06-17T16:56:49.745Z,2.63
2018-06-17T16:59:25.068Z,2.90
2018-06-17T17:01:55.409Z,3.20
2018-06-17T17:04:26.000Z,3.17
2018-06-17T17:06:56.127Z,2.90
2018-06-17T17:09:26.490Z,3.50
2018-06-17T17:11:57.037Z,3.00
2018-06-17T17:14:27.163Z,2.37
2018-06-17T17:16:57.510Z,2.40
2018-06-17T17:19:28.158Z,2.73
2018-06-17T17:21:58.432Z,3.37
2018-06-17T17:24:29.763Z,2.63
2018-06-17T17:26:59.973Z,2.87
2018-06-17T17:29:30.507Z,2.70
2018-06-17T17:32:06.128Z,3.20
2018-06-17T17:34:42.084Z,3.27
2018-06-17T17:37:17.663Z,2.70
2018-06-17T17:39:52.590Z,4.40
2018-06-17T17:42:23.325Z,3.80
2018-06-17T17:44:59.036Z,2.70
2018-06-17T17:47:31.826Z,3.60
2018-06-17T17:50:02.347Z,4.53
2018-06-17T17:52:32.949Z,4.20
2018-06-17T17:55:04.302Z,3.27
2018-06-17T17:57:33.960Z,3.43
2018-06-17T18:00:03.774Z,2.60
2018-06-17T18:02:33.539Z,2.13
2018-06-17T18:05:03.332Z,2.90
2018-06-17T18:07:33.097Z,2.70
2018-06-17T18:10:02.986Z,2.20
2018-06-17T18:12:32.686Z,2.50
2018-06-17T18:15:02.475Z,2.10
2018-06-17T18:17:33.482Z,2.37
2018-06-17T18:20:03.309Z,3.73
2018-06-17T18:22:33.142Z,6.10
2018-06-17T18:25:08.227Z,5.53
2018-06-17T18:27:42.961Z,5.13
2018-06-17T18:30:17.682Z,5.73
2018-06-17T18:32:52.261Z,5.30
2018-06-17T18:35:27.889Z,4.77
2018-06-17T18:37:58.023Z,4.87
2018-06-17T18:40:28.169Z,4.20
2018-06-17T18:42:57.956Z,4.70
2018-06-17T18:45:28.655Z,3.50
2018-06-17T18:47:58.433Z,3.03
2018-06-17T18:50:28.173Z,3.17
2018-06-17T18:52:57.915Z,3.67
2018-06-17T18:55:27.596Z,5.30
2018-06-17T18:57:57.406Z,5.70
2018-06-17T19:00:27.227Z,5.33
2018-06-17T19:02:57.171Z,4.87
2018-06-17T19:05:27.324Z,3.50
2018-06-17T19:07:57.061Z,2.73
2018-06-17T19:10:31.642Z,2.40
2018-06-17T19:15:12.364Z,3.00
2018-06-17T19:17:47.021Z,2.00
2018-06-17T19:20:16.660Z,2.40
2018-06-17T19:22:46.422Z,2.27
2018-06-17T19:25:16.028Z,2.13
2018-06-17T19:27:45.841Z,1.73
2018-06-17T19:30:15.556Z,1.87
2018-06-17T19:32:45.382Z,2.03
2018-06-17T19:35:15.150Z,2.20
2018-06-17T19:37:44.882Z,2.40
2018-06-17T19:40:15.085Z,2.60
2018-06-17T19:42:44.895Z,1.67
2018-06-17T19:45:14.638Z,2.50
2018-06-17T19:47:44.281Z,2.20
2018-06-17T19:50:19.036Z,1.93
2018-06-17T19:52:54.413Z,2.33
2018-06-17T19:55:29.163Z,2.50
2018-06-17T19:58:03.731Z,3.20
2018-06-17T20:00:35.273Z,2.63
2018-06-17T20:03:06.053Z,2.10
2018-06-17T20:05:35.865Z,1.87
2018-06-17T20:08:05.829Z,2.73
2018-06-17T20:10:35.522Z,2.70
2018-06-17T20:13:06.281Z,2.50
2018-06-17T20:15:35.932Z,1.83
2018-06-17T20:18:06.777Z,1.67
2018-06-17T20:20:36.482Z,2.50
2018-06-17T20:23:07.525Z,1.77
2018-06-17T20:25:37.192Z,2.27
2018-06-17T20:28:07.077Z,2.80
2018-06-17T20:30:36.841Z,2.00
2018-06-17T20:33:11.825Z,2.30
2018-06-17T20:35:46.443Z,2.30
2018-06-17T20:38:21.119Z,2.00
2018-06-17T20:40:56.088Z,2.60
2018-06-17T20:43:31.885Z,3.07
2018-06-17T20:46:01.608Z,2.70
2018-06-17T20:48:31.356Z,2.57
2018-06-17T20:51:01.063Z,2.53
2018-06-17T20:53:31.522Z,2.63
2018-06-17T20:56:01.253Z,2.50
2018-06-17T20:58:31.033Z,2.70
2018-06-17T21:01:00.829Z,2.63
2018-06-17T21:03:30.708Z,2.93
2018-06-17T21:06:00.449Z,2.87
2018-06-17T21:08:30.038Z,2.50
2018-06-17T21:10:59.898Z,2.80
2018-06-17T21:13:30.049Z,3.40
2018-06-17T21:15:59.856Z,3.50
2018-06-17T21:18:35.456Z,2.70
2018-06-17T21:21:10.130Z,3.50
2018-06-17T21:23:45.017Z,3.00
2018-06-17T21:26:19.761Z,3.20
2018-06-17T21:28:50.765Z,3.40
2018-06-17T21:31:20.623Z,2.77
2018-06-17T21:33:50.887Z,3.10
2018-06-17T21:36:21.661Z,2.93
2018-06-17T21:38:54.400Z,2.40
2018-06-17T21:41:24.534Z,3.10
2018-06-17T21:43:54.569Z,4.70
2018-06-17T21:46:24.323Z,2.93
2018-06-17T21:48:54.136Z,2.30
2018-06-17T21:51:23.913Z,3.17
2018-06-17T21:53:53.693Z,3.10
2018-06-17T21:56:23.344Z,2.83
2018-06-17T21:58:53.330Z,2.00
2018-06-17T22:01:23.019Z,2.07
2018-06-17T22:03:52.884Z,3.13
2018-06-17T22:06:22.438Z,2.20
2018-06-17T22:09:54.474Z,2.33
2018-06-17T22:12:29.218Z,3.13
2018-06-17T22:15:03.970Z,2.60
2018-06-17T22:17:38.824Z,2.77
2018-06-17T22:20:08.475Z,2.00
2018-06-17T22:22:38.819Z,1.80
2018-06-17T22:25:08.584Z,2.43
2018-06-17T22:27:38.361Z,2.00
2018-06-17T22:30:08.123Z,2.17
2018-06-17T22:32:37.982Z,1.83
2018-06-17T22:35:07.909Z,1.90
2018-06-17T22:37:37.704Z,2.23
2018-06-17T22:40:08.127Z,2.60
2018-06-17T22:42:39.120Z,1.90
2018-06-17T22:45:09.070Z,2.10
2018-06-17T22:47:43.918Z,2.40
2018-06-17T22:50:13.624Z,1.43
2018-06-17T22:52:54.560Z,1.63
2018-06-17T22:55:24.283Z,2.27
2018-06-17T22:57:58.965Z,2.77
2018-06-17T23:00:33.669Z,1.70
2018-06-17T23:03:08.421Z,1.90
2018-06-17T23:05:43.053Z,1.87
2018-06-17T23:08:17.819Z,2.93
2018-06-17T23:10:47.546Z,2.50
2018-06-17T23:13:18.304Z,2.40
2018-06-17T23:15:48.163Z,2.30
2018-06-17T23:18:17.800Z,1.90
2018-06-17T23:20:47.635Z,2.27
2018-06-17T23:23:17.340Z,2.53
2018-06-17T23:25:47.125Z,2.93
2018-06-17T23:28:16.832Z,2.37
2018-06-17T23:30:46.583Z,2.77
2018-06-17T23:33:16.321Z,2.23
2018-06-17T23:35:46.063Z,2.20
2018-06-17T23:38:15.694Z,2.27
2018-06-17T23:40:45.346Z,2.37
2018-06-17T23:43:15.134Z,2.73
2018-06-17T23:45:49.839Z,1.73
2018-06-17T23:50:32.823Z,2.63
2018-06-17T23:53:07.688Z,3.23
2018-06-17T23:55:42.449Z,3.10
2018-06-17T23:58:12.140Z,3.07
